sensor_id;sensor_type;location;lat;lon;timestamp;P1;durP1;ratioP1;P2;durP2;ratioP2
45077;SDS011;60508;42.622;25.416;2022-12-07T00:01:25;39.92;;;18.35;;
45077;SDS011;60508;42.622;25.416;2022-12-07T00:03:53;31.27;;;17.83;;
45077;SDS011;60508;42.622;25.416;2022-12-07T00:06:22;30.02;;;17.35;;
45077;SDS011;60508;42.622;25.416;2022-12-07T00:08:48;33.13;;;17.77;;
45077;SDS011;60508;42.622;25.416;2022-12-07T00:11:20;27.90;;;15.75;;
45077;SDS011;60508;42.622;25.416;2022-12-07T00:13:50;26.02;;;15.85;;
45077;SDS011;60508;42.622;25.416;2022-12-07T00:16:23;33.67;;;17.20;;
45077;SDS011;60508;42.622;25.416;2022-12-07T00:18:50;29.95;;;15.55;;
45077;SDS011;60508;42.622;25.416;2022-12-07T00:21:17;38.65;;;15.02;;
45077;SDS011;60508;42.622;25.416;2022-12-07T00:23:45;24.63;;;15.40;;
45077;SDS011;60508;42.622;25.416;2022-12-07T00:26:13;31.20;;;16.33;;
45077;SDS011;60508;42.622;25.416;2022-12-07T00:28:44;30.85;;;15.60;;
45077;SDS011;60508;42.622;25.416;2022-12-07T00:31:14;27.10;;;15.90;;
45077;SDS011;60508;42.622;25.416;2022-12-07T00:33:41;24.23;;;15.60;;
45077;SDS011;60508;42.622;25.416;2022-12-07T00:36:08;29.73;;;15.15;;
45077;SDS011;60508;42.622;25.416;2022-12-07T00:38:36;28.02;;;15.20;;
45077;SDS011;60508;42.622;25.416;2022-12-07T00:41:03;20.10;;;12.65;;
45077;SDS011;60508;42.622;25.416;2022-12-07T00:43:31;22.65;;;13.10;;
45077;SDS011;60508;42.622;25.416;2022-12-07T00:45:57;25.23;;;14.48;;
45077;SDS011;60508;42.622;25.416;2022-12-07T00:48:23;28.25;;;14.63;;
45077;SDS011;60508;42.622;25.416;2022-12-07T00:50:50;22.27;;;13.15;;
45077;SDS011;60508;42.622;25.416;2022-12-07T00:53:15;22.23;;;13.40;;
45077;SDS011;60508;42.622;25.416;2022-12-07T00:55:42;25.48;;;13.60;;
45077;SDS011;60508;42.622;25.416;2022-12-07T00:58:09;21.90;;;13.73;;
45077;SDS011;60508;42.622;25.416;2022-12-07T01:00:35;23.63;;;13.63;;
45077;SDS011;60508;42.622;25.416;2022-12-07T01:03:06;26.50;;;15.32;;
45077;SDS011;60508;42.622;25.416;2022-12-07T01:05:33;26.30;;;14.07;;
45077;SDS011;60508;42.622;25.416;2022-12-07T01:07:59;25.48;;;13.68;;
45077;SDS011;60508;42.622;25.416;2022-12-07T01:10:25;19.95;;;12.63;;
45077;SDS011;60508;42.622;25.416;2022-12-07T01:12:52;19.40;;;12.68;;
45077;SDS011;60508;42.622;25.416;2022-12-07T01:15:18;29.58;;;13.40;;
45077;SDS011;60508;42.622;25.416;2022-12-07T01:17:44;25.92;;;14.07;;
45077;SDS011;60508;42.622;25.416;2022-12-07T01:20:10;24.00;;;14.75;;
45077;SDS011;60508;42.622;25.416;2022-12-07T01:22:37;31.08;;;15.30;;
45077;SDS011;60508;42.622;25.416;2022-12-07T01:25:05;20.25;;;13.50;;
45077;SDS011;60508;42.622;25.416;2022-12-07T01:27:32;20.60;;;11.75;;
45077;SDS011;60508;42.622;25.416;2022-12-07T01:29:59;33.88;;;15.20;;
45077;SDS011;60508;42.622;25.416;2022-12-07T01:32:25;20.45;;;12.48;;
45077;SDS011;60508;42.622;25.416;2022-12-07T01:34:50;21.83;;;12.60;;
45077;SDS011;60508;42.622;25.416;2022-12-07T01:37:16;20.10;;;12.13;;
45077;SDS011;60508;42.622;25.416;2022-12-07T01:39:42;22.85;;;12.85;;
45077;SDS011;60508;42.622;25.416;2022-12-07T01:42:09;24.60;;;14.32;;
45077;SDS011;60508;42.622;25.416;2022-12-07T01:47:39;21.65;;;12.48;;
45077;SDS011;60508;42.622;25.416;2022-12-07T01:50:06;22.70;;;12.20;;
45077;SDS011;60508;42.622;25.416;2022-12-07T01:52:33;21.90;;;13.55;;
45077;SDS011;60508;42.622;25.416;2022-12-07T01:55:03;22.55;;;11.57;;
45077;SDS011;60508;42.622;25.416;2022-12-07T01:57:33;23.50;;;13.38;;
45077;SDS011;60508;42.622;25.416;2022-12-07T02:00:03;23.38;;;12.80;;
45077;SDS011;60508;42.622;25.416;2022-12-07T02:02:47;23.88;;;13.93;;
45077;SDS011;60508;42.622;25.416;2022-12-07T02:05:17;24.58;;;13.77;;
45077;SDS011;60508;42.622;25.416;2022-12-07T02:07:44;27.85;;;10.93;;
45077;SDS011;60508;42.622;25.416;2022-12-07T02:10:23;26.30;;;13.37;;
45077;SDS011;60508;42.622;25.416;2022-12-07T02:12:54;20.45;;;12.32;;
45077;SDS011;60508;42.622;25.416;2022-12-07T02:15:25;24.38;;;13.18;;
45077;SDS011;60508;42.622;25.416;2022-12-07T02:18:07;21.77;;;12.18;;
45077;SDS011;60508;42.622;25.416;2022-12-07T02:23:45;20.35;;;12.65;;
45077;SDS011;60508;42.622;25.416;2022-12-07T02:29:47;18.08;;;11.77;;
45077;SDS011;60508;42.622;25.416;2022-12-07T02:32:29;20.23;;;12.40;;
45077;SDS011;60508;42.622;25.416;2022-12-07T02:35:07;21.50;;;11.52;;
45077;SDS011;60508;42.622;25.416;2022-12-07T02:40:39;22.70;;;11.63;;
45077;SDS011;60508;42.622;25.416;2022-12-07T02:43:12;17.17;;;11.07;;
45077;SDS011;60508;42.622;25.416;2022-12-07T02:45:42;36.70;;;14.82;;
45077;SDS011;60508;42.622;25.416;2022-12-07T02:48:11;21.05;;;11.57;;
45077;SDS011;60508;42.622;25.416;2022-12-07T02:50:43;24.55;;;12.27;;
45077;SDS011;60508;42.622;25.416;2022-12-07T02:55:55;23.00;;;12.07;;
45077;SDS011;60508;42.622;25.416;2022-12-07T02:58:32;25.25;;;12.10;;
45077;SDS011;60508;42.622;25.416;2022-12-07T03:07:00;19.48;;;11.60;;
45077;SDS011;60508;42.622;25.416;2022-12-07T03:09:49;23.13;;;12.05;;
45077;SDS011;60508;42.622;25.416;2022-12-07T03:12:35;23.58;;;12.35;;
45077;SDS011;60508;42.622;25.416;2022-12-07T03:15:57;26.98;;;12.48;;
45077;SDS011;60508;42.622;25.416;2022-12-07T03:17:58;21.52;;;12.05;;
45077;SDS011;60508;42.622;25.416;2022-12-07T03:20:26;26.15;;;13.32;;
45077;SDS011;60508;42.622;25.416;2022-12-07T03:22:54;17.60;;;12.65;;
45077;SDS011;60508;42.622;25.416;2022-12-07T03:25:21;19.27;;;11.95;;
45077;SDS011;60508;42.622;25.416;2022-12-07T03:27:54;25.45;;;12.68;;
45077;SDS011;60508;42.622;25.416;2022-12-07T03:30:39;24.30;;;13.63;;
45077;SDS011;60508;42.622;25.416;2022-12-07T03:33:11;19.60;;;12.13;;
45077;SDS011;60508;42.622;25.416;2022-12-07T03:35:44;23.13;;;12.00;;
45077;SDS011;60508;42.622;25.416;2022-12-07T03:38:19;23.77;;;13.30;;
45077;SDS011;60508;42.622;25.416;2022-12-07T03:41:00;20.05;;;11.27;;
45077;SDS011;60508;42.622;25.416;2022-12-07T03:43:32;26.40;;;13.77;;
45077;SDS011;60508;42.622;25.416;2022-12-07T03:48:45;27.02;;;13.38;;
45077;SDS011;60508;42.622;25.416;2022-12-07T03:54:31;23.20;;;13.60;;
45077;SDS011;60508;42.622;25.416;2022-12-07T03:57:03;22.00;;;12.27;;
45077;SDS011;60508;42.622;25.416;2022-12-07T03:59:30;23.88;;;13.23;;
45077;SDS011;60508;42.622;25.416;2022-12-07T04:01:57;18.10;;;11.07;;
45077;SDS011;60508;42.622;25.416;2022-12-07T04:04:28;24.52;;;12.15;;
45077;SDS011;60508;42.622;25.416;2022-12-07T04:06:54;18.60;;;11.80;;
45077;SDS011;60508;42.622;25.416;2022-12-07T04:09:20;24.00;;;13.32;;
45077;SDS011;60508;42.622;25.416;2022-12-07T04:11:46;27.08;;;14.13;;
45077;SDS011;60508;42.622;25.416;2022-12-07T04:14:11;18.92;;;11.02;;
45077;SDS011;60508;42.622;25.416;2022-12-07T04:16:53;24.42;;;12.15;;
45077;SDS011;60508;42.622;25.416;2022-12-07T04:19:27;24.05;;;12.90;;
45077;SDS011;60508;42.622;25.416;2022-12-07T04:21:55;19.65;;;12.65;;
45077;SDS011;60508;42.622;25.416;2022-12-07T04:24:22;23.38;;;14.30;;
45077;SDS011;60508;42.622;25.416;2022-12-07T04:26:48;25.42;;;13.38;;
45077;SDS011;60508;42.622;25.416;2022-12-07T04:29:15;26.05;;;15.32;;
45077;SDS011;60508;42.622;25.416;2022-12-07T04:31:42;25.33;;;13.77;;
45077;SDS011;60508;42.622;25.416;2022-12-07T04:34:09;19.02;;;12.50;;
45077;SDS011;60508;42.622;25.416;2022-12-07T04:36:35;31.80;;;14.15;;
45077;SDS011;60508;42.622;25.416;2022-12-07T04:39:01;26.35;;;12.90;;
45077;SDS011;60508;42.622;25.416;2022-12-07T04:41:28;20.02;;;11.80;;
45077;SDS011;60508;42.622;25.416;2022-12-07T04:46:20;21.00;;;11.27;;
45077;SDS011;60508;42.622;25.416;2022-12-07T04:48:47;21.90;;;11.95;;
45077;SDS011;60508;42.622;25.416;2022-12-07T04:51:13;25.42;;;13.25;;
45077;SDS011;60508;42.622;25.416;2022-12-07T04:53:43;23.58;;;12.20;;
45077;SDS011;60508;42.622;25.416;2022-12-07T04:56:09;29.35;;;11.93;;
45077;SDS011;60508;42.622;25.416;2022-12-07T04:58:35;22.50;;;12.23;;
45077;SDS011;60508;42.622;25.416;2022-12-07T05:01:00;24.45;;;12.00;;
45077;SDS011;60508;42.622;25.416;2022-12-07T05:03:26;19.65;;;12.68;;
45077;SDS011;60508;42.622;25.416;2022-12-07T05:05:52;28.23;;;12.02;;
45077;SDS011;60508;42.622;25.416;2022-12-07T05:08:18;31.23;;;13.02;;
45077;SDS011;60508;42.622;25.416;2022-12-07T05:10:43;25.48;;;12.75;;
45077;SDS011;60508;42.622;25.416;2022-12-07T05:13:09;21.67;;;12.52;;
45077;SDS011;60508;42.622;25.416;2022-12-07T05:15:35;22.50;;;12.40;;
45077;SDS011;60508;42.622;25.416;2022-12-07T05:18:01;23.23;;;12.40;;
45077;SDS011;60508;42.622;25.416;2022-12-07T05:20:28;22.00;;;12.90;;
45077;SDS011;60508;42.622;25.416;2022-12-07T05:22:54;30.58;;;13.85;;
45077;SDS011;60508;42.622;25.416;2022-12-07T05:25:20;21.00;;;12.10;;
45077;SDS011;60508;42.622;25.416;2022-12-07T05:27:45;18.85;;;12.15;;
45077;SDS011;60508;42.622;25.416;2022-12-07T05:30:12;27.90;;;13.75;;
45077;SDS011;60508;42.622;25.416;2022-12-07T05:32:38;35.80;;;12.98;;
45077;SDS011;60508;42.622;25.416;2022-12-07T05:35:04;27.13;;;13.93;;
45077;SDS011;60508;42.622;25.416;2022-12-07T05:37:30;23.60;;;13.85;;
45077;SDS011;60508;42.622;25.416;2022-12-07T05:39:56;25.85;;;16.75;;
45077;SDS011;60508;42.622;25.416;2022-12-07T05:42:22;28.33;;;16.42;;
45077;SDS011;60508;42.622;25.416;2022-12-07T05:44:48;34.00;;;15.32;;
45077;SDS011;60508;42.622;25.416;2022-12-07T05:47:14;26.15;;;14.48;;
45077;SDS011;60508;42.622;25.416;2022-12-07T05:49:41;36.88;;;17.60;;
45077;SDS011;60508;42.622;25.416;2022-12-07T05:52:07;44.90;;;25.60;;
45077;SDS011;60508;42.622;25.416;2022-12-07T05:54:33;33.70;;;18.13;;
45077;SDS011;60508;42.622;25.416;2022-12-07T05:56:59;24.40;;;13.32;;
45077;SDS011;60508;42.622;25.416;2022-12-07T05:59:25;21.67;;;14.75;;
45077;SDS011;60508;42.622;25.416;2022-12-07T06:01:56;22.58;;;14.02;;
45077;SDS011;60508;42.622;25.416;2022-12-07T06:04:25;25.92;;;13.65;;
45077;SDS011;60508;42.622;25.416;2022-12-07T06:06:52;18.55;;;12.70;;
45077;SDS011;60508;42.622;25.416;2022-12-07T06:09:19;21.63;;;11.63;;
45077;SDS011;60508;42.622;25.416;2022-12-07T06:11:46;23.65;;;11.00;;
45077;SDS011;60508;42.622;25.416;2022-12-07T06:14:31;31.33;;;16.67;;
45077;SDS011;60508;42.622;25.416;2022-12-07T06:16:58;22.77;;;11.30;;
45077;SDS011;60508;42.622;25.416;2022-12-07T06:19:24;24.27;;;12.25;;
45077;SDS011;60508;42.622;25.416;2022-12-07T06:21:49;17.17;;;11.45;;
45077;SDS011;60508;42.622;25.416;2022-12-07T06:24:16;35.13;;;21.48;;
45077;SDS011;60508;42.622;25.416;2022-12-07T06:26:42;22.63;;;15.77;;
45077;SDS011;60508;42.622;25.416;2022-12-07T06:29:08;20.88;;;12.98;;
45077;SDS011;60508;42.622;25.416;2022-12-07T06:31:35;22.58;;;13.70;;
45077;SDS011;60508;42.622;25.416;2022-12-07T06:34:02;22.33;;;13.25;;
45077;SDS011;60508;42.622;25.416;2022-12-07T06:36:29;27.13;;;15.93;;
45077;SDS011;60508;42.622;25.416;2022-12-07T06:38:55;24.33;;;13.70;;
45077;SDS011;60508;42.622;25.416;2022-12-07T06:41:22;31.83;;;15.60;;
45077;SDS011;60508;42.622;25.416;2022-12-07T06:43:48;36.33;;;15.30;;
45077;SDS011;60508;42.622;25.416;2022-12-07T06:46:15;31.35;;;17.13;;
45077;SDS011;60508;42.622;25.416;2022-12-07T06:48:41;37.13;;;17.65;;
45077;SDS011;60508;42.622;25.416;2022-12-07T06:51:08;32.25;;;17.02;;
45077;SDS011;60508;42.622;25.416;2022-12-07T06:53:35;29.42;;;15.05;;
45077;SDS011;60508;42.622;25.416;2022-12-07T06:56:01;34.42;;;17.13;;
45077;SDS011;60508;42.622;25.416;2022-12-07T06:58:27;32.33;;;19.95;;
45077;SDS011;60508;42.622;25.416;2022-12-07T07:00:53;41.67;;;21.80;;
45077;SDS011;60508;42.622;25.416;2022-12-07T07:03:19;32.20;;;19.02;;
45077;SDS011;60508;42.622;25.416;2022-12-07T07:05:45;29.98;;;17.05;;
45077;SDS011;60508;42.622;25.416;2022-12-07T07:08:11;37.08;;;17.17;;
45077;SDS011;60508;42.622;25.416;2022-12-07T07:10:40;36.30;;;19.73;;
45077;SDS011;60508;42.622;25.416;2022-12-07T07:13:06;32.25;;;19.00;;
45077;SDS011;60508;42.622;25.416;2022-12-07T07:15:33;30.63;;;17.23;;
45077;SDS011;60508;42.622;25.416;2022-12-07T07:17:59;38.72;;;19.05;;
45077;SDS011;60508;42.622;25.416;2022-12-07T07:20:26;33.20;;;19.08;;
45077;SDS011;60508;42.622;25.416;2022-12-07T07:22:55;46.88;;;23.48;;
45077;SDS011;60508;42.622;25.416;2022-12-07T07:25:21;45.83;;;21.33;;
45077;SDS011;60508;42.622;25.416;2022-12-07T07:27:47;47.90;;;24.05;;
45077;SDS011;60508;42.622;25.416;2022-12-07T07:30:13;44.50;;;23.00;;
45077;SDS011;60508;42.622;25.416;2022-12-07T07:32:38;47.22;;;24.13;;
45077;SDS011;60508;42.622;25.416;2022-12-07T07:35:05;38.22;;;22.85;;
45077;SDS011;60508;42.622;25.416;2022-12-07T07:37:31;49.15;;;25.00;;
45077;SDS011;60508;42.622;25.416;2022-12-07T07:39:56;48.15;;;25.95;;
45077;SDS011;60508;42.622;25.416;2022-12-07T07:42:22;50.90;;;25.70;;
45077;SDS011;60508;42.622;25.416;2022-12-07T07:44:48;48.00;;;27.15;;
45077;SDS011;60508;42.622;25.416;2022-12-07T07:47:13;55.88;;;25.77;;
45077;SDS011;60508;42.622;25.416;2022-12-07T07:49:39;53.75;;;27.15;;
45077;SDS011;60508;42.622;25.416;2022-12-07T07:52:06;51.72;;;28.95;;
45077;SDS011;60508;42.622;25.416;2022-12-07T07:54:32;68.30;;;32.05;;
45077;SDS011;60508;42.622;25.416;2022-12-07T07:56:58;56.08;;;31.90;;
45077;SDS011;60508;42.622;25.416;2022-12-07T07:59:24;62.13;;;31.25;;
45077;SDS011;60508;42.622;25.416;2022-12-07T08:01:50;50.63;;;27.90;;
45077;SDS011;60508;42.622;25.416;2022-12-07T08:04:16;52.58;;;29.88;;
45077;SDS011;60508;42.622;25.416;2022-12-07T08:06:42;59.25;;;29.90;;
45077;SDS011;60508;42.622;25.416;2022-12-07T08:09:08;56.22;;;29.50;;
45077;SDS011;60508;42.622;25.416;2022-12-07T08:11:34;52.60;;;30.13;;
45077;SDS011;60508;42.622;25.416;2022-12-07T08:14:02;53.38;;;29.38;;
45077;SDS011;60508;42.622;25.416;2022-12-07T08:16:28;48.65;;;29.90;;
45077;SDS011;60508;42.622;25.416;2022-12-07T08:18:53;53.38;;;28.08;;
45077;SDS011;60508;42.622;25.416;2022-12-07T08:21:19;51.30;;;27.08;;
45077;SDS011;60508;42.622;25.416;2022-12-07T08:23:45;56.67;;;26.70;;
45077;SDS011;60508;42.622;25.416;2022-12-07T08:26:13;54.35;;;28.20;;
45077;SDS011;60508;42.622;25.416;2022-12-07T08:28:40;55.73;;;27.97;;
45077;SDS011;60508;42.622;25.416;2022-12-07T08:31:07;51.67;;;26.30;;
45077;SDS011;60508;42.622;25.416;2022-12-07T08:33:35;45.88;;;26.40;;
45077;SDS011;60508;42.622;25.416;2022-12-07T08:36:03;56.78;;;28.60;;
45077;SDS011;60508;42.622;25.416;2022-12-07T08:38:30;46.42;;;25.05;;
45077;SDS011;60508;42.622;25.416;2022-12-07T08:40:57;40.88;;;24.98;;
45077;SDS011;60508;42.622;25.416;2022-12-07T08:43:23;40.83;;;24.17;;
45077;SDS011;60508;42.622;25.416;2022-12-07T08:45:52;43.35;;;24.65;;
45077;SDS011;60508;42.622;25.416;2022-12-07T08:48:39;36.72;;;21.67;;
45077;SDS011;60508;42.622;25.416;2022-12-07T08:51:09;45.80;;;25.60;;
45077;SDS011;60508;42.622;25.416;2022-12-07T08:53:36;31.33;;;18.65;;
45077;SDS011;60508;42.622;25.416;2022-12-07T08:56:03;32.50;;;19.38;;
45077;SDS011;60508;42.622;25.416;2022-12-07T08:58:30;49.88;;;24.15;;
45077;SDS011;60508;42.622;25.416;2022-12-07T09:00:55;41.20;;;23.83;;
45077;SDS011;60508;42.622;25.416;2022-12-07T09:03:21;49.00;;;22.35;;
45077;SDS011;60508;42.622;25.416;2022-12-07T09:05:47;41.85;;;22.85;;
45077;SDS011;60508;42.622;25.416;2022-12-07T09:08:13;36.65;;;21.13;;
45077;SDS011;60508;42.622;25.416;2022-12-07T09:10:39;31.52;;;20.75;;
45077;SDS011;60508;42.622;25.416;2022-12-07T09:13:05;44.10;;;20.15;;
45077;SDS011;60508;42.622;25.416;2022-12-07T09:15:31;37.70;;;22.75;;
45077;SDS011;60508;42.622;25.416;2022-12-07T09:17:57;32.22;;;20.33;;
45077;SDS011;60508;42.622;25.416;2022-12-07T09:20:23;32.42;;;21.05;;
45077;SDS011;60508;42.622;25.416;2022-12-07T09:22:49;35.72;;;20.50;;
45077;SDS011;60508;42.622;25.416;2022-12-07T09:25:14;29.25;;;19.63;;
45077;SDS011;60508;42.622;25.416;2022-12-07T09:27:40;36.42;;;18.52;;
45077;SDS011;60508;42.622;25.416;2022-12-07T09:30:07;30.02;;;17.42;;
45077;SDS011;60508;42.622;25.416;2022-12-07T09:32:33;36.88;;;18.65;;
45077;SDS011;60508;42.622;25.416;2022-12-07T09:34:59;37.92;;;17.65;;
45077;SDS011;60508;42.622;25.416;2022-12-07T09:37:25;23.77;;;15.52;;
45077;SDS011;60508;42.622;25.416;2022-12-07T09:39:51;26.17;;;15.57;;
45077;SDS011;60508;42.622;25.416;2022-12-07T09:44:54;34.35;;;17.52;;
45077;SDS011;60508;42.622;25.416;2022-12-07T09:47:20;30.63;;;17.50;;
45077;SDS011;60508;42.622;25.416;2022-12-07T09:49:46;26.85;;;16.88;;
45077;SDS011;60508;42.622;25.416;2022-12-07T09:54:52;31.83;;;17.65;;
45077;SDS011;60508;42.622;25.416;2022-12-07T09:57:19;31.23;;;17.85;;
45077;SDS011;60508;42.622;25.416;2022-12-07T09:59:51;31.05;;;16.40;;
45077;SDS011;60508;42.622;25.416;2022-12-07T10:05:05;31.55;;;15.55;;
45077;SDS011;60508;42.622;25.416;2022-12-07T10:07:32;35.83;;;13.93;;
45077;SDS011;60508;42.622;25.416;2022-12-07T10:09:58;22.13;;;13.18;;
45077;SDS011;60508;42.622;25.416;2022-12-07T10:12:24;23.25;;;12.68;;
45077;SDS011;60508;42.622;25.416;2022-12-07T10:19:52;17.95;;;12.05;;
45077;SDS011;60508;42.622;25.416;2022-12-07T10:22:38;22.00;;;11.07;;
45077;SDS011;60508;42.622;25.416;2022-12-07T10:25:07;18.02;;;10.40;;
45077;SDS011;60508;42.622;25.416;2022-12-07T10:27:43;25.85;;;13.88;;
45077;SDS011;60508;42.622;25.416;2022-12-07T10:30:12;23.58;;;12.25;;
45077;SDS011;60508;42.622;25.416;2022-12-07T10:32:40;26.30;;;12.98;;
45077;SDS011;60508;42.622;25.416;2022-12-07T10:35:26;27.38;;;13.40;;
45077;SDS011;60508;42.622;25.416;2022-12-07T10:37:54;19.90;;;12.07;;
45077;SDS011;60508;42.622;25.416;2022-12-07T10:43:00;28.85;;;12.70;;
45077;SDS011;60508;42.622;25.416;2022-12-07T10:45:36;16.80;;;10.48;;
45077;SDS011;60508;42.622;25.416;2022-12-07T10:51:23;26.58;;;9.80;;
45077;SDS011;60508;42.622;25.416;2022-12-07T10:56:43;28.23;;;10.48;;
45077;SDS011;60508;42.622;25.416;2022-12-07T11:24:24;19.50;;;12.50;;
45077;SDS011;60508;42.622;25.416;2022-12-07T11:35:15;23.77;;;13.52;;
45077;SDS011;60508;42.622;25.416;2022-12-07T11:37:57;21.40;;;12.65;;
45077;SDS011;60508;42.622;25.416;2022-12-07T11:40:28;28.27;;;15.07;;
45077;SDS011;60508;42.622;25.416;2022-12-07T11:45:47;26.40;;;12.25;;
45077;SDS011;60508;42.622;25.416;2022-12-07T11:48:22;26.75;;;12.57;;
45077;SDS011;60508;42.622;25.416;2022-12-07T11:50:56;23.38;;;11.98;;
45077;SDS011;60508;42.622;25.416;2022-12-07T11:53:35;27.08;;;13.57;;
45077;SDS011;60508;42.622;25.416;2022-12-07T11:56:12;27.92;;;13.73;;
45077;SDS011;60508;42.622;25.416;2022-12-07T11:58:45;22.65;;;13.05;;
45077;SDS011;60508;42.622;25.416;2022-12-07T12:01:18;32.03;;;12.82;;
45077;SDS011;60508;42.622;25.416;2022-12-07T12:03:52;20.23;;;11.32;;
45077;SDS011;60508;42.622;25.416;2022-12-07T12:06:43;29.92;;;13.10;;
45077;SDS011;60508;42.622;25.416;2022-12-07T12:09:27;20.60;;;10.95;;
45077;SDS011;60508;42.622;25.416;2022-12-07T12:21:04;19.52;;;11.30;;
45077;SDS011;60508;42.622;25.416;2022-12-07T12:23:44;18.55;;;13.38;;
45077;SDS011;60508;42.622;25.416;2022-12-07T12:26:19;23.73;;;12.02;;
45077;SDS011;60508;42.622;25.416;2022-12-07T12:31:29;21.10;;;12.70;;
45077;SDS011;60508;42.622;25.416;2022-12-07T12:33:58;15.85;;;11.75;;
45077;SDS011;60508;42.622;25.416;2022-12-07T12:36:42;18.60;;;11.13;;
45077;SDS011;60508;42.622;25.416;2022-12-07T12:39:15;22.27;;;11.75;;
45077;SDS011;60508;42.622;25.416;2022-12-07T12:46:47;29.80;;;17.17;;
45077;SDS011;60508;42.622;25.416;2022-12-07T12:57:32;31.17;;;18.10;;
45077;SDS011;60508;42.622;25.416;2022-12-07T13:00:00;36.25;;;19.90;;
45077;SDS011;60508;42.622;25.416;2022-12-07T13:02:48;38.33;;;21.60;;
45077;SDS011;60508;42.622;25.416;2022-12-07T13:05:21;27.77;;;17.88;;
45077;SDS011;60508;42.622;25.416;2022-12-07T13:07:56;31.85;;;15.80;;
45077;SDS011;60508;42.622;25.416;2022-12-07T13:12:58;28.65;;;16.27;;
45077;SDS011;60508;42.622;25.416;2022-12-07T13:18:39;38.97;;;19.83;;
45077;SDS011;60508;42.622;25.416;2022-12-07T13:23:38;38.25;;;18.02;;
45077;SDS011;60508;42.622;25.416;2022-12-07T13:26:17;34.80;;;16.98;;
45077;SDS011;60508;42.622;25.416;2022-12-07T13:28:50;37.13;;;17.23;;
45077;SDS011;60508;42.622;25.416;2022-12-07T13:34:01;32.88;;;15.82;;
45077;SDS011;60508;42.622;25.416;2022-12-07T13:36:37;33.28;;;16.85;;
45077;SDS011;60508;42.622;25.416;2022-12-07T13:41:41;34.80;;;15.60;;
45077;SDS011;60508;42.622;25.416;2022-12-07T13:44:12;25.88;;;13.77;;
45077;SDS011;60508;42.622;25.416;2022-12-07T13:49:21;24.27;;;13.98;;
45077;SDS011;60508;42.622;25.416;2022-12-07T13:51:49;25.33;;;12.80;;
45077;SDS011;60508;42.622;25.416;2022-12-07T13:54:15;26.90;;;13.73;;
45077;SDS011;60508;42.622;25.416;2022-12-07T13:56:43;21.20;;;12.43;;
45077;SDS011;60508;42.622;25.416;2022-12-07T13:59:21;23.75;;;13.07;;
45077;SDS011;60508;42.622;25.416;2022-12-07T14:01:50;21.48;;;12.48;;
45077;SDS011;60508;42.622;25.416;2022-12-07T14:04:18;29.27;;;15.05;;
45077;SDS011;60508;42.622;25.416;2022-12-07T14:06:50;30.15;;;16.45;;
45077;SDS011;60508;42.622;25.416;2022-12-07T14:09:21;34.28;;;16.55;;
45077;SDS011;60508;42.622;25.416;2022-12-07T14:11:50;24.27;;;14.07;;
45077;SDS011;60508;42.622;25.416;2022-12-07T14:14:22;26.45;;;12.80;;
45077;SDS011;60508;42.622;25.416;2022-12-07T14:16:59;24.35;;;14.45;;
45077;SDS011;60508;42.622;25.416;2022-12-07T14:19:44;27.20;;;14.48;;
45077;SDS011;60508;42.622;25.416;2022-12-07T14:22:28;23.73;;;14.00;;
45077;SDS011;60508;42.622;25.416;2022-12-07T14:25:16;29.08;;;14.32;;
45077;SDS011;60508;42.622;25.416;2022-12-07T14:27:57;26.45;;;15.05;;
45077;SDS011;60508;42.622;25.416;2022-12-07T14:30:31;35.03;;;14.68;;
45077;SDS011;60508;42.622;25.416;2022-12-07T14:33:00;36.40;;;16.83;;
45077;SDS011;60508;42.622;25.416;2022-12-07T14:35:28;21.42;;;14.50;;
45077;SDS011;60508;42.622;25.416;2022-12-07T14:37:54;27.60;;;15.60;;
45077;SDS011;60508;42.622;25.416;2022-12-07T14:40:21;33.88;;;17.55;;
45077;SDS011;60508;42.622;25.416;2022-12-07T14:43:02;41.50;;;18.80;;
45077;SDS011;60508;42.622;25.416;2022-12-07T14:45:32;49.90;;;27.48;;
45077;SDS011;60508;42.622;25.416;2022-12-07T14:47:58;43.30;;;22.88;;
45077;SDS011;60508;42.622;25.416;2022-12-07T14:50:24;45.53;;;20.05;;
45077;SDS011;60508;42.622;25.416;2022-12-07T14:52:59;42.53;;;18.08;;
45077;SDS011;60508;42.622;25.416;2022-12-07T14:55:29;44.90;;;25.23;;
45077;SDS011;60508;42.622;25.416;2022-12-07T14:57:57;38.05;;;22.33;;
45077;SDS011;60508;42.622;25.416;2022-12-07T15:00:24;40.80;;;23.10;;
45077;SDS011;60508;42.622;25.416;2022-12-07T15:02:52;36.35;;;21.60;;
45077;SDS011;60508;42.622;25.416;2022-12-07T15:05:21;50.85;;;28.73;;
45077;SDS011;60508;42.622;25.416;2022-12-07T15:07:48;61.45;;;38.35;;
45077;SDS011;60508;42.622;25.416;2022-12-07T15:10:16;72.30;;;38.72;;
45077;SDS011;60508;42.622;25.416;2022-12-07T15:12:47;76.38;;;39.30;;
45077;SDS011;60508;42.622;25.416;2022-12-07T15:15:13;57.78;;;31.02;;
45077;SDS011;60508;42.622;25.416;2022-12-07T15:17:39;52.55;;;25.85;;
45077;SDS011;60508;42.622;25.416;2022-12-07T15:20:07;35.63;;;19.88;;
45077;SDS011;60508;42.622;25.416;2022-12-07T15:22:36;26.27;;;17.25;;
45077;SDS011;60508;42.622;25.416;2022-12-07T15:25:02;34.00;;;18.73;;
45077;SDS011;60508;42.622;25.416;2022-12-07T15:27:29;30.77;;;18.80;;
45077;SDS011;60508;42.622;25.416;2022-12-07T15:29:55;34.47;;;18.85;;
45077;SDS011;60508;42.622;25.416;2022-12-07T15:32:21;37.38;;;18.17;;
45077;SDS011;60508;42.622;25.416;2022-12-07T15:34:48;31.08;;;16.80;;
45077;SDS011;60508;42.622;25.416;2022-12-07T15:37:15;31.25;;;19.65;;
45077;SDS011;60508;42.622;25.416;2022-12-07T15:39:41;39.78;;;20.67;;
45077;SDS011;60508;42.622;25.416;2022-12-07T15:42:09;26.60;;;14.73;;
45077;SDS011;60508;42.622;25.416;2022-12-07T15:44:35;26.05;;;14.00;;
45077;SDS011;60508;42.622;25.416;2022-12-07T15:47:19;28.00;;;14.25;;
45077;SDS011;60508;42.622;25.416;2022-12-07T15:49:45;25.05;;;13.35;;
45077;SDS011;60508;42.622;25.416;2022-12-07T15:52:11;25.65;;;13.43;;
45077;SDS011;60508;42.622;25.416;2022-12-07T15:54:38;29.63;;;14.85;;
45077;SDS011;60508;42.622;25.416;2022-12-07T15:57:04;34.47;;;16.42;;
45077;SDS011;60508;42.622;25.416;2022-12-07T15:59:31;29.60;;;17.33;;
45077;SDS011;60508;42.622;25.416;2022-12-07T16:01:57;46.47;;;22.67;;
45077;SDS011;60508;42.622;25.416;2022-12-07T16:04:23;43.47;;;21.27;;
45077;SDS011;60508;42.622;25.416;2022-12-07T16:06:51;55.63;;;23.20;;
45077;SDS011;60508;42.622;25.416;2022-12-07T16:09:17;40.13;;;20.15;;
45077;SDS011;60508;42.622;25.416;2022-12-07T16:11:43;47.45;;;23.77;;
45077;SDS011;60508;42.622;25.416;2022-12-07T16:14:09;51.13;;;27.40;;
45077;SDS011;60508;42.622;25.416;2022-12-07T16:16:35;41.78;;;25.45;;
45077;SDS011;60508;42.622;25.416;2022-12-07T16:19:05;38.53;;;19.90;;
45077;SDS011;60508;42.622;25.416;2022-12-07T16:21:31;38.17;;;21.75;;
45077;SDS011;60508;42.622;25.416;2022-12-07T16:23:57;50.03;;;23.80;;
45077;SDS011;60508;42.622;25.416;2022-12-07T16:26:24;37.13;;;21.25;;
45077;SDS011;60508;42.622;25.416;2022-12-07T16:28:50;29.20;;;19.95;;